createdAt,value
2022-11-30T00:01:17.274Z,53.43
2022-11-30T00:03:43.679Z,52.93
2022-11-30T00:06:13.628Z,52.63
2022-11-30T00:08:40.255Z,51.00
2022-11-30T00:11:12.704Z,54.13
2022-11-30T00:13:39.316Z,54.37
2022-11-30T00:16:06.152Z,55.20
2022-11-30T00:18:32.432Z,48.87
2022-11-30T00:21:00.666Z,52.80
2022-11-30T00:23:34.168Z,53.17
2022-11-30T00:26:06.187Z,51.60
2022-11-30T00:28:33.378Z,53.70
2022-11-30T00:31:01.953Z,49.60
2022-11-30T00:33:28.589Z,48.63
2022-11-30T00:35:59.741Z,51.67
2022-11-30T00:38:28.018Z,49.40
2022-11-30T00:40:55.863Z,54.17
2022-11-30T00:43:22.203Z,56.83
2022-11-30T00:45:48.763Z,49.73
2022-11-30T00:48:14.973Z,52.73
2022-11-30T00:50:41.455Z,50.63
2022-11-30T00:53:07.588Z,54.23
2022-11-30T00:55:34.136Z,51.10
2022-11-30T00:58:00.599Z,51.47
2022-11-30T01:00:28.214Z,48.13
2022-11-30T01:02:55.843Z,55.80
2022-11-30T01:05:22.308Z,51.97
2022-11-30T01:07:48.418Z,58.33
2022-11-30T01:10:15.060Z,50.60
2022-11-30T01:12:41.269Z,57.10
2022-11-30T01:15:08.331Z,51.30
2022-11-30T01:17:34.525Z,58.10
2022-11-30T01:20:00.863Z,51.37
2022-11-30T01:22:27.134Z,55.10
2022-11-30T01:24:53.542Z,57.57
2022-11-30T01:27:19.832Z,54.10
2022-11-30T01:29:46.225Z,54.40
2022-11-30T01:32:12.281Z,56.83
2022-11-30T01:34:38.644Z,57.60
2022-11-30T01:37:04.736Z,53.40
2022-11-30T01:39:31.118Z,55.43
2022-11-30T01:41:57.204Z,55.53
2022-11-30T01:44:26.214Z,58.27
2022-11-30T01:46:57.486Z,59.30
2022-11-30T01:49:28.472Z,61.63
2022-11-30T01:52:20.463Z,68.10
2022-11-30T01:54:55.222Z,61.73
2022-11-30T01:57:44.250Z,62.67
2022-11-30T02:00:13.131Z,66.33
2022-11-30T02:03:02.153Z,62.73
2022-11-30T02:05:30.683Z,59.97
2022-11-30T02:07:56.988Z,64.03
2022-11-30T02:10:29.409Z,55.93
2022-11-30T02:13:10.404Z,60.27
2022-11-30T02:15:50.917Z,61.80
2022-11-30T02:18:27.528Z,65.57
2022-11-30T02:21:13.222Z,64.60
2022-11-30T02:24:00.015Z,67.13
2022-11-30T02:26:38.558Z,70.30
2022-11-30T02:29:26.558Z,62.10
2022-11-30T02:32:04.674Z,59.40
2022-11-30T02:34:34.263Z,69.57
2022-11-30T02:37:02.750Z,69.73
2022-11-30T02:39:28.876Z,63.63
2022-11-30T02:41:55.240Z,66.83
2022-11-30T02:44:22.208Z,71.57
2022-11-30T02:47:07.351Z,69.50
2022-11-30T02:49:48.029Z,63.07
2022-11-30T02:52:15.537Z,65.17
2022-11-30T02:54:41.767Z,65.27
2022-11-30T02:57:08.730Z,63.47
2022-11-30T02:59:35.262Z,64.80
2022-11-30T03:02:01.738Z,71.20
2022-11-30T03:04:27.836Z,66.23
2022-11-30T03:06:54.271Z,71.47
2022-11-30T03:09:20.526Z,61.43
2022-11-30T03:11:46.882Z,58.07
2022-11-30T03:14:12.913Z,61.03
2022-11-30T03:16:39.362Z,62.27
2022-11-30T03:19:06.122Z,62.03
2022-11-30T03:21:32.555Z,61.60
2022-11-30T03:23:58.668Z,62.03
2022-11-30T03:26:25.013Z,67.83
2022-11-30T03:28:51.061Z,62.50
2022-11-30T03:31:17.608Z,66.00
2022-11-30T03:33:43.777Z,64.90
2022-11-30T03:36:11.769Z,62.83
2022-11-30T03:38:38.338Z,61.77
2022-11-30T03:41:08.064Z,62.80
2022-11-30T03:43:34.207Z,59.90
2022-11-30T03:46:00.814Z,62.63
2022-11-30T03:48:27.078Z,64.97
2022-11-30T03:50:53.565Z,66.27
2022-11-30T03:53:21.524Z,63.23
2022-11-30T03:55:52.739Z,65.00
2022-11-30T03:58:18.972Z,62.90
2022-11-30T04:00:45.333Z,64.27
2022-11-30T04:03:11.646Z,57.10
2022-11-30T04:05:38.130Z,56.43
2022-11-30T04:08:04.314Z,58.57
2022-11-30T04:10:30.688Z,56.50
2022-11-30T04:12:56.839Z,54.17
2022-11-30T04:15:23.245Z,57.47
2022-11-30T04:17:49.372Z,58.50
2022-11-30T04:20:16.185Z,56.33
2022-11-30T04:22:42.323Z,51.80
2022-11-30T04:25:08.912Z,60.13
2022-11-30T04:27:35.016Z,58.07
2022-11-30T04:30:01.438Z,60.67
2022-11-30T04:32:27.562Z,54.83
2022-11-30T04:34:54.045Z,56.17
2022-11-30T04:37:20.110Z,54.33
2022-11-30T04:39:46.566Z,55.53
2022-11-30T04:42:12.786Z,50.20
2022-11-30T04:44:39.525Z,54.30
2022-11-30T04:47:05.630Z,55.60
2022-11-30T04:49:32.370Z,54.43
2022-11-30T04:51:58.706Z,49.97
2022-11-30T04:54:25.448Z,52.90
2022-11-30T04:56:51.712Z,54.67
2022-11-30T04:59:18.623Z,55.37
2022-11-30T05:01:44.925Z,54.40
2022-11-30T05:04:11.906Z,57.87
2022-11-30T05:06:38.106Z,55.50
2022-11-30T05:09:04.584Z,58.60
2022-11-30T05:11:30.726Z,57.57
2022-11-30T05:13:57.104Z,56.60
2022-11-30T05:16:23.267Z,60.63
2022-11-30T05:18:49.687Z,55.43
2022-11-30T05:21:17.121Z,60.63
2022-11-30T05:23:43.486Z,58.80
2022-11-30T05:26:09.563Z,64.67
2022-11-30T05:28:36.147Z,55.40
2022-11-30T05:31:05.737Z,57.10
2022-11-30T05:33:32.887Z,56.63
2022-11-30T05:35:58.970Z,56.70
2022-11-30T05:38:25.328Z,57.27
2022-11-30T05:40:51.448Z,54.53
2022-11-30T05:43:18.188Z,63.20
2022-11-30T05:45:44.293Z,60.13
2022-11-30T05:48:10.663Z,60.37
2022-11-30T05:50:36.912Z,57.90
2022-11-30T05:53:03.332Z,61.13
2022-11-30T05:55:30.378Z,56.90
2022-11-30T05:57:56.810Z,61.27
2022-11-30T06:00:23.254Z,60.20
2022-11-30T06:02:55.591Z,62.57
2022-11-30T06:05:21.871Z,69.23
2022-11-30T06:07:48.304Z,64.20
2022-11-30T06:10:14.779Z,58.63
2022-11-30T06:12:41.169Z,58.93
2022-11-30T06:15:08.174Z,55.83
2022-11-30T06:17:37.189Z,58.60
2022-11-30T06:20:07.213Z,62.13
2022-11-30T06:22:33.629Z,55.87
2022-11-30T06:25:00.221Z,61.20
2022-11-30T06:27:30.568Z,62.17
2022-11-30T06:29:57.226Z,65.80
2022-11-30T06:32:23.654Z,65.23
2022-11-30T06:34:49.915Z,67.90
2022-11-30T06:37:17.152Z,65.47
2022-11-30T06:40:05.283Z,57.07
2022-11-30T06:42:30.687Z,54.80
2022-11-30T06:44:56.851Z,52.20
2022-11-30T06:47:23.651Z,60.70
2022-11-30T06:49:49.745Z,63.17
2022-11-30T06:52:16.566Z,58.83
2022-11-30T06:54:42.923Z,62.17
2022-11-30T06:57:09.387Z,61.40
2022-11-30T06:59:41.663Z,59.23
2022-11-30T07:02:17.481Z,65.80
2022-11-30T07:04:45.023Z,57.20
2022-11-30T07:07:11.714Z,53.83
2022-11-30T07:09:37.942Z,57.50
2022-11-30T07:12:05.077Z,55.90
2022-11-30T07:14:31.405Z,57.97
2022-11-30T07:16:57.825Z,54.10
2022-11-30T07:19:24.044Z,56.00
2022-11-30T07:21:50.532Z,59.07
2022-11-30T07:24:35.395Z,56.70
2022-11-30T07:27:03.462Z,56.03
2022-11-30T07:29:29.786Z,52.27
2022-11-30T07:31:56.382Z,57.03
2022-11-30T07:34:22.640Z,55.70
2022-11-30T07:36:49.295Z,57.30
2022-11-30T07:39:15.655Z,54.23
2022-11-30T07:41:42.469Z,60.87
2022-11-30T07:44:11.057Z,56.37
2022-11-30T07:46:38.130Z,54.00
2022-11-30T07:49:06.692Z,63.20
2022-11-30T07:51:33.687Z,55.37
2022-11-30T07:54:00.161Z,55.33
2022-11-30T07:56:27.807Z,60.80
2022-11-30T07:58:59.340Z,57.77
2022-11-30T08:01:28.737Z,61.80
2022-11-30T08:03:55.217Z,59.60
2022-11-30T08:06:24.826Z,64.23
2022-11-30T08:08:53.076Z,58.73
2022-11-30T08:11:24.863Z,58.03
2022-11-30T08:13:51.973Z,58.17
2022-11-30T08:16:24.115Z,54.37
2022-11-30T08:18:50.817Z,53.00
2022-11-30T08:21:19.901Z,51.77
2022-11-30T08:23:52.033Z,63.17
2022-11-30T08:26:21.169Z,46.73
2022-11-30T08:28:49.314Z,53.93
2022-11-30T08:31:38.777Z,67.50
2022-11-30T08:34:07.578Z,143.27
2022-11-30T08:36:34.711Z,65.27
2022-11-30T08:39:04.279Z,61.70
2022-11-30T08:41:31.196Z,53.97
2022-11-30T08:43:57.615Z,102.03
2022-11-30T08:49:26.313Z,247.97
2022-11-30T08:54:45.938Z,75.53
2022-11-30T08:57:18.259Z,64.03
2022-11-30T08:59:44.900Z,63.07
2022-11-30T09:02:13.895Z,61.83
2022-11-30T09:04:41.029Z,63.47
2022-11-30T09:07:08.809Z,61.20
2022-11-30T09:09:36.206Z,64.53
2022-11-30T09:12:02.588Z,63.90
2022-11-30T09:14:28.991Z,58.53
2022-11-30T09:16:55.131Z,53.23
2022-11-30T09:19:21.564Z,59.67
2022-11-30T09:21:51.836Z,54.87
2022-11-30T09:24:20.212Z,64.83
2022-11-30T09:26:46.400Z,58.83
2022-11-30T09:29:12.795Z,57.27
2022-11-30T09:31:38.848Z,60.53
2022-11-30T09:34:05.230Z,55.43
2022-11-30T09:36:33.148Z,65.00
2022-11-30T09:38:59.516Z,61.57
2022-11-30T09:41:40.776Z,60.43
2022-11-30T09:44:35.796Z,58.27
2022-11-30T09:47:21.329Z,57.20
2022-11-30T09:49:48.020Z,58.73
2022-11-30T09:52:25.722Z,55.37
2022-11-30T09:54:52.900Z,59.57
2022-11-30T09:57:29.646Z,64.63
2022-11-30T09:59:59.292Z,56.93
2022-11-30T10:02:31.759Z,57.87
2022-11-30T10:05:00.413Z,64.00
2022-11-30T10:07:43.603Z,58.53
2022-11-30T10:10:35.914Z,54.33
2022-11-30T10:13:21.329Z,61.23
2022-11-30T10:16:06.405Z,64.77
2022-11-30T10:18:38.984Z,53.90
2022-11-30T10:21:33.573Z,58.33
2022-11-30T10:24:05.829Z,67.00
2022-11-30T10:26:34.988Z,67.73
2022-11-30T10:29:16.834Z,77.20
2022-11-30T10:31:46.779Z,68.03
2022-11-30T10:34:22.246Z,69.30
2022-11-30T10:37:16.151Z,58.57
2022-11-30T10:39:55.134Z,74.43
2022-11-30T10:42:32.199Z,95.40
2022-11-30T10:45:19.385Z,98.93
2022-11-30T10:47:53.700Z,133.80
2022-11-30T10:50:23.724Z,91.70
2022-11-30T10:52:56.298Z,98.87
2022-11-30T10:55:39.263Z,110.93
2022-11-30T10:58:20.878Z,86.37
2022-11-30T11:01:00.100Z,75.10
2022-11-30T11:03:27.058Z,128.70
2022-11-30T11:06:14.804Z,105.13
2022-11-30T11:08:44.680Z,103.33
2022-11-30T11:11:36.040Z,80.80
2022-11-30T11:14:32.369Z,75.17
2022-11-30T11:17:21.115Z,97.37
2022-11-30T11:19:49.204Z,97.10
2022-11-30T11:22:19.281Z,89.53
2022-11-30T11:24:48.083Z,88.67
2022-11-30T11:27:22.136Z,77.17
2022-11-30T11:30:00.574Z,108.23
2022-11-30T11:32:27.253Z,119.30
2022-11-30T11:34:54.016Z,79.57
2022-11-30T11:37:30.403Z,85.80
2022-11-30T11:39:59.980Z,91.93
2022-11-30T11:42:30.771Z,92.00
2022-11-30T11:44:59.175Z,91.27
2022-11-30T11:47:27.190Z,86.67
2022-11-30T11:53:22.333Z,74.07
2022-11-30T11:55:57.985Z,78.37
2022-11-30T11:58:34.706Z,64.63
2022-11-30T12:01:38.266Z,64.83
2022-11-30T12:03:55.564Z,56.93
2022-11-30T12:06:23.135Z,60.97
2022-11-30T12:08:58.999Z,71.17
2022-11-30T12:11:32.512Z,77.77
2022-11-30T12:14:01.069Z,77.57
2022-11-30T12:16:30.916Z,61.57
2022-11-30T12:19:15.083Z,62.77
2022-11-30T12:22:03.183Z,55.27
2022-11-30T12:24:38.535Z,55.30
2022-11-30T12:27:54.587Z,65.13
2022-11-30T12:31:10.985Z,59.03
2022-11-30T12:33:43.513Z,61.00
2022-11-30T12:36:16.202Z,62.53
2022-11-30T12:39:04.919Z,55.87
2022-11-30T12:41:42.197Z,62.27
2022-11-30T12:44:29.064Z,61.13
2022-11-30T12:47:36.182Z,54.27
2022-11-30T12:50:41.224Z,53.80
2022-11-30T12:53:25.084Z,57.97
2022-11-30T12:56:16.542Z,57.77
2022-11-30T12:58:50.197Z,67.70
2022-11-30T13:01:36.300Z,54.20
2022-11-30T13:04:28.760Z,57.00
2022-11-30T13:07:12.315Z,63.60
2022-11-30T13:09:48.573Z,57.33
2022-11-30T13:12:36.607Z,64.03
2022-11-30T13:15:09.811Z,57.87
2022-11-30T13:17:42.515Z,59.87
2022-11-30T13:20:30.741Z,61.70
2022-11-30T13:23:33.336Z,56.27
2022-11-30T13:26:24.561Z,51.37
2022-11-30T13:29:15.574Z,52.40
2022-11-30T13:31:53.281Z,57.93
2022-11-30T13:34:26.555Z,66.77
2022-11-30T13:37:28.061Z,53.63
2022-11-30T13:39:57.713Z,65.27
2022-11-30T13:42:40.486Z,59.17
2022-11-30T13:45:13.057Z,66.20
2022-11-30T13:47:52.162Z,64.07
2022-11-30T13:50:30.778Z,57.20
2022-11-30T13:52:56.956Z,60.33
2022-11-30T13:55:35.781Z,59.07
2022-11-30T13:58:06.683Z,60.20
2022-11-30T14:00:33.113Z,55.13
2022-11-30T14:03:25.232Z,54.17
2022-11-30T14:05:57.233Z,55.57
2022-11-30T14:08:23.400Z,60.53
2022-11-30T14:10:50.788Z,59.63
2022-11-30T14:13:19.355Z,59.77
2022-11-30T14:15:45.903Z,54.13
2022-11-30T14:18:18.188Z,59.00
2022-11-30T14:20:49.940Z,55.83
2022-11-30T14:23:52.898Z,53.20
2022-11-30T14:26:37.147Z,59.03
2022-11-30T14:29:06.928Z,55.80
2022-11-30T14:31:42.555Z,59.23
2022-11-30T14:34:26.612Z,64.47
2022-11-30T14:37:25.175Z,64.93
2022-11-30T14:39:56.218Z,61.87
2022-11-30T14:42:24.408Z,54.60
2022-11-30T14:44:50.943Z,55.23
2022-11-30T14:47:30.537Z,57.33
2022-11-30T14:50:00.998Z,61.87
2022-11-30T14:52:43.662Z,51.20
2022-11-30T14:55:28.529Z,55.27
2022-11-30T14:58:20.081Z,57.60
2022-11-30T15:00:47.623Z,56.07
2022-11-30T15:03:24.545Z,50.63
2022-11-30T15:05:54.292Z,57.60
2022-11-30T15:08:23.527Z,51.27
2022-11-30T15:10:50.409Z,57.23
2022-11-30T15:13:19.253Z,58.80
2022-11-30T15:15:53.940Z,48.70
2022-11-30T15:18:23.288Z,51.23
2022-11-30T15:21:03.480Z,50.73
2022-11-30T15:23:30.613Z,55.83
2022-11-30T15:26:06.128Z,54.70
2022-11-30T15:28:38.756Z,50.37
2022-11-30T15:31:10.170Z,42.50
2022-11-30T15:33:41.984Z,53.47
2022-11-30T15:36:32.973Z,51.27
2022-11-30T15:38:55.927Z,53.30
2022-11-30T15:41:24.789Z,48.27
2022-11-30T15:43:53.842Z,55.93
2022-11-30T15:46:44.582Z,48.33
2022-11-30T15:49:28.645Z,46.03
2022-11-30T15:52:16.280Z,52.47
2022-11-30T15:54:46.095Z,50.20
2022-11-30T15:57:13.511Z,52.23
2022-11-30T15:59:40.443Z,47.87
2022-11-30T16:02:27.255Z,51.20
2022-11-30T16:04:57.652Z,49.60
2022-11-30T16:07:28.044Z,50.70
2022-11-30T16:10:21.759Z,50.40
2022-11-30T16:12:50.564Z,46.43
2022-11-30T16:15:30.066Z,49.20
2022-11-30T16:18:11.710Z,48.70
2022-11-30T16:20:40.722Z,50.83
2022-11-30T16:23:13.752Z,46.93
2022-11-30T16:25:41.967Z,47.67
2022-11-30T16:28:09.637Z,44.07
2022-11-30T16:30:38.394Z,48.60
2022-11-30T16:33:07.699Z,48.40
2022-11-30T16:35:48.087Z,47.40
2022-11-30T16:38:14.468Z,53.13
2022-11-30T16:40:41.166Z,46.67
2022-11-30T16:43:10.996Z,54.00
2022-11-30T16:45:39.494Z,76.00
2022-11-30T16:48:10.024Z,49.33
2022-11-30T16:50:38.219Z,62.43
2022-11-30T16:53:04.966Z,53.77
2022-11-30T16:55:34.372Z,53.97
2022-11-30T16:58:01.218Z,46.77
2022-11-30T17:00:28.156Z,54.37
2022-11-30T17:02:54.454Z,51.30
2022-11-30T17:05:21.093Z,54.70
2022-11-30T17:07:47.700Z,51.57
2022-11-30T17:10:14.309Z,49.40
2022-11-30T17:12:41.283Z,48.33
2022-11-30T17:15:18.748Z,47.77
2022-11-30T17:17:45.060Z,47.13
2022-11-30T17:20:13.585Z,69.80
2022-11-30T17:22:40.662Z,46.43
2022-11-30T17:25:12.657Z,50.67
2022-11-30T17:27:39.013Z,48.13
2022-11-30T17:30:06.382Z,50.90
2022-11-30T17:32:33.159Z,48.37
2022-11-30T17:34:59.918Z,47.10
2022-11-30T17:37:26.509Z,48.27
2022-11-30T17:39:53.204Z,46.70
2022-11-30T17:42:19.507Z,51.53
2022-11-30T17:44:47.543Z,53.87
2022-11-30T17:47:13.927Z,54.07
2022-11-30T17:49:43.839Z,53.10
2022-11-30T17:52:10.171Z,51.67
2022-11-30T17:54:36.694Z,75.77
2022-11-30T17:57:03.446Z,67.13
2022-11-30T17:59:30.012Z,64.80
2022-11-30T18:01:56.668Z,61.30
2022-11-30T18:04:23.388Z,57.80
2022-11-30T18:06:49.783Z,52.33
2022-11-30T18:09:16.628Z,59.27
2022-11-30T18:11:43.067Z,53.53
2022-11-30T18:14:10.057Z,59.57
2022-11-30T18:16:36.613Z,56.27
2022-11-30T18:19:11.801Z,55.23
2022-11-30T18:21:39.648Z,51.90
2022-11-30T18:24:06.855Z,56.07
2022-11-30T18:26:34.992Z,55.93
2022-11-30T18:29:06.536Z,50.73
2022-11-30T18:31:35.952Z,51.77
2022-11-30T18:34:05.662Z,52.17
2022-11-30T18:36:33.388Z,53.30
2022-11-30T18:39:00.375Z,48.50
2022-11-30T18:41:29.434Z,56.50
2022-11-30T18:43:57.282Z,48.17
2022-11-30T18:46:26.017Z,52.93
2022-11-30T18:48:55.674Z,56.73
2022-11-30T18:51:25.432Z,54.60
2022-11-30T18:53:57.853Z,54.23
2022-11-30T18:56:25.623Z,49.33
2022-11-30T18:59:01.213Z,54.93
2022-11-30T19:01:28.653Z,49.00
2022-11-30T19:03:57.982Z,55.23
2022-11-30T19:06:27.707Z,53.37
2022-11-30T19:08:57.953Z,53.30
2022-11-30T19:11:25.226Z,55.90
2022-11-30T19:13:56.857Z,51.30
2022-11-30T19:16:24.711Z,53.00
2022-11-30T19:18:56.605Z,62.33
2022-11-30T19:21:23.566Z,57.70
2022-11-30T19:23:50.161Z,59.27
2022-11-30T19:26:17.034Z,52.47
2022-11-30T19:28:44.899Z,54.20
2022-11-30T19:31:14.414Z,50.50
2022-11-30T19:33:42.949Z,49.83
2022-11-30T19:36:18.273Z,46.13
2022-11-30T19:38:45.308Z,45.90
2022-11-30T19:41:14.147Z,50.43
2022-11-30T19:43:40.904Z,52.70
2022-11-30T19:46:15.383Z,50.90
2022-11-30T19:48:43.684Z,47.47
2022-11-30T19:51:18.313Z,49.67
2022-11-30T19:53:45.349Z,47.07
2022-11-30T19:56:14.764Z,46.37
2022-11-30T19:58:43.376Z,48.13
2022-11-30T20:01:19.262Z,46.47
2022-11-30T20:03:45.893Z,47.33
2022-11-30T20:06:12.298Z,45.27
2022-11-30T20:08:41.417Z,44.37
2022-11-30T20:11:09.883Z,56.90
2022-11-30T20:13:37.222Z,47.40
2022-11-30T20:16:22.431Z,42.77
2022-11-30T20:19:00.473Z,47.77
2022-11-30T20:21:32.746Z,44.40
2022-11-30T20:24:03.721Z,47.30
2022-11-30T20:26:41.107Z,49.87
2022-11-30T20:29:12.473Z,46.10
2022-11-30T20:31:39.695Z,41.67
2022-11-30T20:34:07.552Z,37.70
2022-11-30T20:36:34.599Z,37.43
2022-11-30T20:39:02.257Z,35.53
2022-11-30T20:41:28.710Z,36.97
2022-11-30T20:43:56.261Z,33.60
2022-11-30T20:46:27.083Z,34.67
2022-11-30T20:48:54.387Z,36.80
2022-11-30T20:51:32.027Z,35.80
2022-11-30T20:54:01.662Z,35.60
2022-11-30T20:56:28.376Z,34.27
2022-11-30T20:58:55.086Z,32.80
2022-11-30T21:01:22.428Z,35.63
2022-11-30T21:03:49.437Z,34.47
2022-11-30T21:06:15.812Z,33.23
2022-11-30T21:08:43.036Z,33.67
2022-11-30T21:11:15.636Z,36.83
2022-11-30T21:13:43.734Z,32.73
2022-11-30T21:16:13.847Z,35.13
2022-11-30T21:18:43.309Z,32.63
2022-11-30T21:21:15.716Z,35.13
2022-11-30T21:23:43.295Z,33.07
2022-11-30T21:26:36.932Z,33.77
2022-11-30T21:29:09.464Z,36.50
2022-11-30T21:31:35.699Z,32.60
2022-11-30T21:34:03.300Z,34.20
2022-11-30T21:36:29.672Z,32.23
2022-11-30T21:39:05.067Z,32.50
2022-11-30T21:41:33.186Z,34.47
2022-11-30T21:44:00.009Z,32.03
2022-11-30T21:46:26.282Z,31.77
2022-11-30T21:48:53.028Z,30.60
2022-11-30T21:51:22.116Z,35.00
2022-11-30T21:53:52.519Z,33.03
2022-11-30T21:56:22.131Z,34.37
2022-11-30T21:58:49.832Z,28.70
2022-11-30T22:01:25.962Z,31.10
2022-11-30T22:03:55.703Z,32.07
2022-11-30T22:06:24.319Z,33.40
2022-11-30T22:08:51.101Z,30.53
2022-11-30T22:11:22.347Z,29.90
2022-11-30T22:13:52.956Z,30.30
2022-11-30T22:16:21.096Z,31.43
2022-11-30T22:18:50.830Z,34.20
2022-11-30T22:21:19.349Z,32.23
2022-11-30T22:23:51.955Z,30.10
2022-11-30T22:26:24.319Z,33.47
2022-11-30T22:28:54.037Z,30.67
2022-11-30T22:31:22.343Z,31.23
2022-11-30T22:33:49.455Z,30.47
2022-11-30T22:36:18.922Z,26.90
2022-11-30T22:38:46.235Z,29.30
2022-11-30T22:41:15.196Z,32.70
2022-11-30T22:43:42.702Z,31.17
2022-11-30T22:46:15.524Z,33.97
2022-11-30T22:48:42.866Z,29.63
2022-11-30T22:51:12.025Z,28.13
2022-11-30T22:53:39.599Z,30.80
2022-11-30T22:56:24.030Z,31.83
2022-11-30T22:58:53.469Z,32.73
2022-11-30T23:01:24.641Z,29.67
2022-11-30T23:03:55.659Z,30.97
2022-11-30T23:06:24.767Z,29.77
2022-11-30T23:08:51.679Z,32.50
2022-11-30T23:11:23.128Z,28.90
2022-11-30T23:13:50.182Z,30.53
2022-11-30T23:16:16.891Z,34.43
2022-11-30T23:18:53.888Z,36.93
2022-11-30T23:21:25.801Z,30.83
2022-11-30T23:23:54.702Z,30.57
2022-11-30T23:26:23.572Z,28.90
2022-11-30T23:28:52.111Z,31.50
2022-11-30T23:31:34.036Z,29.80
2022-11-30T23:34:07.933Z,29.87
2022-11-30T23:36:34.904Z,33.73
2022-11-30T23:39:09.401Z,30.13
2022-11-30T23:41:35.809Z,31.60
2022-11-30T23:44:02.290Z,32.07
2022-11-30T23:46:28.971Z,30.13
2022-11-30T23:48:55.989Z,32.27
2022-11-30T23:51:22.947Z,28.37
2022-11-30T23:53:49.321Z,32.00
2022-11-30T23:56:17.752Z,32.00
2022-11-30T23:58:44.517Z,29.87
